sensor_id;sensor_type;location;lat;lon;timestamp;P1;durP1;ratioP1;P2;durP2;ratioP2
30458;SDS011;17254;50.976;7.034;2022-12-07T00:00:02;50.67;;;31.17;;
30458;SDS011;17254;50.976;7.034;2022-12-07T00:00:10;51.37;;;30.53;;
30458;SDS011;17254;50.976;7.034;2022-12-07T00:00:17;51.17;;;30.73;;
30458;SDS011;17254;50.976;7.034;2022-12-07T00:00:24;50.40;;;30.00;;
30458;SDS011;17254;50.976;7.034;2022-12-07T00:00:29;49.22;;;29.85;;
30458;SDS011;17254;50.976;7.034;2022-12-07T00:00:35;48.13;;;29.70;;
30458;SDS011;17254;50.976;7.034;2022-12-07T00:00:41;46.80;;;29.08;;
30458;SDS011;17254;50.976;7.034;2022-12-07T00:00:47;45.70;;;27.98;;
30458;SDS011;17254;50.976;7.034;2022-12-07T00:00:53;47.28;;;27.95;;
30458;SDS011;17254;50.976;7.034;2022-12-07T00:01:03;46.97;;;27.85;;
30458;SDS011;17254;50.976;7.034;2022-12-07T00:01:12;45.53;;;27.17;;
30458;SDS011;17254;50.976;7.034;2022-12-07T00:01:20;46.38;;;27.68;;
30458;SDS011;17254;50.976;7.034;2022-12-07T00:01:28;47.40;;;28.37;;
30458;SDS011;17254;50.976;7.034;2022-12-07T00:01:35;47.47;;;28.63;;
30458;SDS011;17254;50.976;7.034;2022-12-07T00:01:44;49.38;;;29.65;;
30458;SDS011;17254;50.976;7.034;2022-12-07T00:01:50;48.23;;;29.32;;
30458;SDS011;17254;50.976;7.034;2022-12-07T00:01:56;45.45;;;28.17;;
30458;SDS011;17254;50.976;7.034;2022-12-07T00:02:02;45.63;;;27.87;;
30458;SDS011;17254;50.976;7.034;2022-12-07T00:02:08;46.08;;;27.45;;
30458;SDS011;17254;50.976;7.034;2022-12-07T00:02:14;46.00;;;26.63;;
30458;SDS011;17254;50.976;7.034;2022-12-07T00:02:20;46.65;;;26.70;;
30458;SDS011;17254;50.976;7.034;2022-12-07T00:02:26;47.50;;;27.38;;
30458;SDS011;17254;50.976;7.034;2022-12-07T00:02:33;47.40;;;27.64;;
30458;SDS011;17254;50.976;7.034;2022-12-07T00:02:39;47.28;;;28.65;;
30458;SDS011;17254;50.976;7.034;2022-12-07T00:02:44;47.97;;;29.43;;
30458;SDS011;17254;50.976;7.034;2022-12-07T00:02:50;47.75;;;29.90;;
30458;SDS011;17254;50.976;7.034;2022-12-07T00:02:56;48.67;;;30.30;;
30458;SDS011;17254;50.976;7.034;2022-12-07T00:03:02;50.03;;;30.65;;
30458;SDS011;17254;50.976;7.034;2022-12-07T00:03:08;49.58;;;30.50;;
30458;SDS011;17254;50.976;7.034;2022-12-07T00:03:14;49.97;;;30.73;;
30458;SDS011;17254;50.976;7.034;2022-12-07T00:03:20;50.30;;;31.10;;
30458;SDS011;17254;50.976;7.034;2022-12-07T00:03:26;49.90;;;30.80;;
30458;SDS011;17254;50.976;7.034;2022-12-07T00:03:32;49.78;;;31.10;;
30458;SDS011;17254;50.976;7.034;2022-12-07T00:03:38;49.17;;;31.55;;
30458;SDS011;17254;50.976;7.034;2022-12-07T00:03:46;47.63;;;30.67;;
30458;SDS011;17254;50.976;7.034;2022-12-07T00:03:53;47.44;;;30.42;;
30458;SDS011;17254;50.976;7.034;2022-12-07T00:04:03;47.24;;;30.64;;
30458;SDS011;17254;50.976;7.034;2022-12-07T00:04:11;47.02;;;29.68;;
30458;SDS011;17254;50.976;7.034;2022-12-07T00:04:19;46.39;;;28.73;;
30458;SDS011;17254;50.976;7.034;2022-12-07T00:04:25;46.33;;;28.20;;
30458;SDS011;17254;50.976;7.034;2022-12-07T00:04:30;45.03;;;27.25;;
30458;SDS011;17254;50.976;7.034;2022-12-07T00:04:36;45.70;;;27.65;;
30458;SDS011;17254;50.976;7.034;2022-12-07T00:04:42;46.80;;;29.55;;
30458;SDS011;17254;50.976;7.034;2022-12-07T00:04:48;47.63;;;30.92;;
30458;SDS011;17254;50.976;7.034;2022-12-07T00:04:54;49.07;;;31.37;;
30458;SDS011;17254;50.976;7.034;2022-12-07T00:05:00;49.17;;;31.35;;
30458;SDS011;17254;50.976;7.034;2022-12-07T00:05:06;48.80;;;31.25;;
30458;SDS011;17254;50.976;7.034;2022-12-07T00:05:12;48.47;;;30.70;;
30458;SDS011;17254;50.976;7.034;2022-12-07T00:05:19;49.10;;;30.86;;
30458;SDS011;17254;50.976;7.034;2022-12-07T00:05:25;48.90;;;31.40;;
30458;SDS011;17254;50.976;7.034;2022-12-07T00:05:32;50.03;;;32.05;;
30458;SDS011;17254;50.976;7.034;2022-12-07T00:05:38;48.83;;;32.23;;
30458;SDS011;17254;50.976;7.034;2022-12-07T00:05:44;49.28;;;32.40;;
30458;SDS011;17254;50.976;7.034;2022-12-07T00:05:50;48.10;;;31.65;;
30458;SDS011;17254;50.976;7.034;2022-12-07T00:05:57;48.47;;;31.60;;
30458;SDS011;17254;50.976;7.034;2022-12-07T00:06:03;48.60;;;31.36;;
30458;SDS011;17254;50.976;7.034;2022-12-07T00:06:11;49.30;;;31.14;;
30458;SDS011;17254;50.976;7.034;2022-12-07T00:06:19;49.98;;;31.43;;
30458;SDS011;17254;50.976;7.034;2022-12-07T00:06:25;50.23;;;31.97;;
30458;SDS011;17254;50.976;7.034;2022-12-07T00:06:32;50.43;;;31.73;;
30458;SDS011;17254;50.976;7.034;2022-12-07T00:06:40;51.53;;;31.63;;
30458;SDS011;17254;50.976;7.034;2022-12-07T00:06:50;50.73;;;31.27;;
30458;SDS011;17254;50.976;7.034;2022-12-07T00:06:57;48.77;;;31.03;;
30458;SDS011;17254;50.976;7.034;2022-12-07T00:07:02;48.08;;;31.23;;
30458;SDS011;17254;50.976;7.034;2022-12-07T00:07:09;47.10;;;31.17;;
30458;SDS011;17254;50.976;7.034;2022-12-07T00:07:15;47.20;;;31.35;;
30458;SDS011;17254;50.976;7.034;2022-12-07T00:07:21;46.55;;;31.02;;
30458;SDS011;17254;50.976;7.034;2022-12-07T00:07:26;46.97;;;30.90;;
30458;SDS011;17254;50.976;7.034;2022-12-07T00:07:32;47.70;;;30.43;;
30458;SDS011;17254;50.976;7.034;2022-12-07T00:07:38;47.58;;;30.60;;
30458;SDS011;17254;50.976;7.034;2022-12-07T00:07:44;45.53;;;30.52;;
30458;SDS011;17254;50.976;7.034;2022-12-07T00:07:50;45.97;;;31.00;;
30458;SDS011;17254;50.976;7.034;2022-12-07T00:07:56;45.42;;;30.95;;
30458;SDS011;17254;50.976;7.034;2022-12-07T00:08:02;43.57;;;30.87;;
30458;SDS011;17254;50.976;7.034;2022-12-07T00:08:08;44.00;;;31.27;;
30458;SDS011;17254;50.976;7.034;2022-12-07T00:08:13;44.88;;;31.02;;
30458;SDS011;17254;50.976;7.034;2022-12-07T00:08:19;44.65;;;30.98;;
30458;SDS011;17254;50.976;7.034;2022-12-07T00:08:26;43.94;;;30.74;;
30458;SDS011;17254;50.976;7.034;2022-12-07T00:08:32;45.83;;;31.00;;
30458;SDS011;17254;50.976;7.034;2022-12-07T00:08:39;46.07;;;31.20;;
30458;SDS011;17254;50.976;7.034;2022-12-07T00:08:45;46.97;;;31.80;;
30458;SDS011;17254;50.976;7.034;2022-12-07T00:08:52;47.92;;;32.30;;
30458;SDS011;17254;50.976;7.034;2022-12-07T00:08:58;50.47;;;33.28;;
30458;SDS011;17254;50.976;7.034;2022-12-07T00:09:04;50.92;;;34.10;;
30458;SDS011;17254;50.976;7.034;2022-12-07T00:09:12;50.60;;;33.93;;
30458;SDS011;17254;50.976;7.034;2022-12-07T00:09:20;50.83;;;33.43;;
30458;SDS011;17254;50.976;7.034;2022-12-07T00:09:26;50.10;;;32.85;;
30458;SDS011;17254;50.976;7.034;2022-12-07T00:09:32;47.90;;;31.63;;
30458;SDS011;17254;50.976;7.034;2022-12-07T00:09:37;47.87;;;31.70;;
30458;SDS011;17254;50.976;7.034;2022-12-07T00:09:46;48.60;;;32.99;;
30458;SDS011;17254;50.976;7.034;2022-12-07T00:09:52;49.00;;;33.60;;
30458;SDS011;17254;50.976;7.034;2022-12-07T00:09:58;50.08;;;34.25;;
30458;SDS011;17254;50.976;7.034;2022-12-07T00:10:07;50.80;;;34.22;;
30458;SDS011;17254;50.976;7.034;2022-12-07T00:10:13;50.61;;;33.41;;
30458;SDS011;17254;50.976;7.034;2022-12-07T00:10:19;49.33;;;32.47;;
30458;SDS011;17254;50.976;7.034;2022-12-07T00:10:25;48.30;;;32.03;;
30458;SDS011;17254;50.976;7.034;2022-12-07T00:10:32;47.83;;;31.88;;
30458;SDS011;17254;50.976;7.034;2022-12-07T00:10:38;47.43;;;31.45;;
30458;SDS011;17254;50.976;7.034;2022-12-07T00:10:44;47.80;;;31.37;;
30458;SDS011;17254;50.976;7.034;2022-12-07T00:10:50;49.63;;;32.13;;
30458;SDS011;17254;50.976;7.034;2022-12-07T00:11:00;50.38;;;32.53;;
30458;SDS011;17254;50.976;7.034;2022-12-07T00:11:08;50.77;;;32.63;;
30458;SDS011;17254;50.976;7.034;2022-12-07T00:11:16;49.42;;;32.42;;
30458;SDS011;17254;50.976;7.034;2022-12-07T00:11:24;48.27;;;31.40;;
30458;SDS011;17254;50.976;7.034;2022-12-07T00:11:30;47.88;;;30.85;;
30458;SDS011;17254;50.976;7.034;2022-12-07T00:11:36;49.80;;;31.07;;
30458;SDS011;17254;50.976;7.034;2022-12-07T00:11:42;50.03;;;31.40;;
30458;SDS011;17254;50.976;7.034;2022-12-07T00:11:49;49.42;;;31.10;;
30458;SDS011;17254;50.976;7.034;2022-12-07T00:11:56;48.78;;;31.12;;
30458;SDS011;17254;50.976;7.034;2022-12-07T00:12:02;46.88;;;30.98;;
30458;SDS011;17254;50.976;7.034;2022-12-07T00:12:08;45.63;;;30.73;;
30458;SDS011;17254;50.976;7.034;2022-12-07T00:12:14;45.93;;;30.43;;
30458;SDS011;17254;50.976;7.034;2022-12-07T00:12:20;45.35;;;30.17;;
30458;SDS011;17254;50.976;7.034;2022-12-07T00:12:26;45.28;;;30.48;;
30458;SDS011;17254;50.976;7.034;2022-12-07T00:12:32;45.95;;;30.55;;
30458;SDS011;17254;50.976;7.034;2022-12-07T00:12:38;47.10;;;30.92;;
30458;SDS011;17254;50.976;7.034;2022-12-07T00:12:44;47.68;;;31.06;;
30458;SDS011;17254;50.976;7.034;2022-12-07T00:12:50;47.20;;;30.93;;
30458;SDS011;17254;50.976;7.034;2022-12-07T00:12:56;46.65;;;30.65;;
30458;SDS011;17254;50.976;7.034;2022-12-07T00:13:02;48.88;;;30.58;;
30458;SDS011;17254;50.976;7.034;2022-12-07T00:13:08;48.53;;;30.38;;
30458;SDS011;17254;50.976;7.034;2022-12-07T00:13:14;48.60;;;29.70;;
30458;SDS011;17254;50.976;7.034;2022-12-07T00:13:20;49.20;;;29.73;;
30458;SDS011;17254;50.976;7.034;2022-12-07T00:13:26;48.90;;;29.10;;
30458;SDS011;17254;50.976;7.034;2022-12-07T00:13:32;46.50;;;28.73;;
30458;SDS011;17254;50.976;7.034;2022-12-07T00:13:39;44.16;;;27.62;;
30458;SDS011;17254;50.976;7.034;2022-12-07T00:13:46;41.73;;;27.27;;
30458;SDS011;17254;50.976;7.034;2022-12-07T00:13:53;42.26;;;27.08;;
30458;SDS011;17254;50.976;7.034;2022-12-07T00:14:01;41.92;;;26.42;;
30458;SDS011;17254;50.976;7.034;2022-12-07T00:14:10;43.47;;;27.53;;
30458;SDS011;17254;50.976;7.034;2022-12-07T00:14:17;43.20;;;27.47;;
30458;SDS011;17254;50.976;7.034;2022-12-07T00:14:24;42.70;;;27.83;;
30458;SDS011;17254;50.976;7.034;2022-12-07T00:14:30;44.17;;;28.70;;
30458;SDS011;17254;50.976;7.034;2022-12-07T00:14:36;44.05;;;28.58;;
30458;SDS011;17254;50.976;7.034;2022-12-07T00:14:41;41.70;;;27.27;;
30458;SDS011;17254;50.976;7.034;2022-12-07T00:14:47;42.65;;;27.02;;
30458;SDS011;17254;50.976;7.034;2022-12-07T00:14:53;43.53;;;27.67;;
30458;SDS011;17254;50.976;7.034;2022-12-07T00:14:59;44.03;;;28.27;;
30458;SDS011;17254;50.976;7.034;2022-12-07T00:15:05;43.85;;;28.58;;
30458;SDS011;17254;50.976;7.034;2022-12-07T00:15:12;46.57;;;30.63;;
30458;SDS011;17254;50.976;7.034;2022-12-07T00:15:18;46.00;;;30.63;;
30458;SDS011;17254;50.976;7.034;2022-12-07T00:15:25;45.47;;;29.83;;
30458;SDS011;17254;50.976;7.034;2022-12-07T00:15:33;43.42;;;29.10;;
30458;SDS011;17254;50.976;7.034;2022-12-07T00:15:40;42.80;;;28.20;;
30458;SDS011;17254;50.976;7.034;2022-12-07T00:15:46;42.30;;;28.33;;
30458;SDS011;17254;50.976;7.034;2022-12-07T00:15:52;42.28;;;28.48;;
30458;SDS011;17254;50.976;7.034;2022-12-07T00:15:59;43.63;;;28.87;;
30458;SDS011;17254;50.976;7.034;2022-12-07T00:16:07;44.40;;;29.13;;
30458;SDS011;17254;50.976;7.034;2022-12-07T00:16:15;46.90;;;29.17;;
30458;SDS011;17254;50.976;7.034;2022-12-07T00:16:23;49.13;;;29.27;;
30458;SDS011;17254;50.976;7.034;2022-12-07T00:16:31;50.77;;;30.03;;
30458;SDS011;17254;50.976;7.034;2022-12-07T00:16:37;51.67;;;30.70;;
30458;SDS011;17254;50.976;7.034;2022-12-07T00:16:43;51.33;;;31.48;;
30458;SDS011;17254;50.976;7.034;2022-12-07T00:16:51;50.62;;;31.42;;
30458;SDS011;17254;50.976;7.034;2022-12-07T00:16:57;48.46;;;30.94;;
30458;SDS011;17254;50.976;7.034;2022-12-07T00:17:03;48.35;;;30.15;;
30458;SDS011;17254;50.976;7.034;2022-12-07T00:17:09;47.30;;;29.57;;
30458;SDS011;17254;50.976;7.034;2022-12-07T00:17:15;48.58;;;29.25;;
30458;SDS011;17254;50.976;7.034;2022-12-07T00:17:21;48.90;;;29.60;;
30458;SDS011;17254;50.976;7.034;2022-12-07T00:17:26;49.65;;;29.92;;
30458;SDS011;17254;50.976;7.034;2022-12-07T00:17:32;50.10;;;30.70;;
30458;SDS011;17254;50.976;7.034;2022-12-07T00:17:38;50.88;;;30.83;;
30458;SDS011;17254;50.976;7.034;2022-12-07T00:17:44;49.53;;;30.73;;
30458;SDS011;17254;50.976;7.034;2022-12-07T00:17:50;50.08;;;30.55;;
30458;SDS011;17254;50.976;7.034;2022-12-07T00:17:56;48.80;;;30.30;;
30458;SDS011;17254;50.976;7.034;2022-12-07T00:18:02;47.30;;;29.92;;
30458;SDS011;17254;50.976;7.034;2022-12-07T00:18:08;46.10;;;29.83;;
30458;SDS011;17254;50.976;7.034;2022-12-07T00:18:14;45.33;;;29.63;;
30458;SDS011;17254;50.976;7.034;2022-12-07T00:18:20;43.95;;;29.95;;
30458;SDS011;17254;50.976;7.034;2022-12-07T00:18:26;45.85;;;30.15;;
30458;SDS011;17254;50.976;7.034;2022-12-07T00:18:32;45.97;;;30.07;;
30458;SDS011;17254;50.976;7.034;2022-12-07T00:18:39;46.83;;;30.23;;
30458;SDS011;17254;50.976;7.034;2022-12-07T00:18:45;49.78;;;30.70;;
30458;SDS011;17254;50.976;7.034;2022-12-07T00:18:51;48.28;;;28.92;;
30458;SDS011;17254;50.976;7.034;2022-12-07T00:18:58;48.03;;;27.90;;
30458;SDS011;17254;50.976;7.034;2022-12-07T00:19:04;47.15;;;26.45;;
30458;SDS011;17254;50.976;7.034;2022-12-07T00:19:11;46.60;;;26.58;;
30458;SDS011;17254;50.976;7.034;2022-12-07T00:19:18;45.10;;;26.03;;
30458;SDS011;17254;50.976;7.034;2022-12-07T00:19:24;46.20;;;27.48;;
30458;SDS011;17254;50.976;7.034;2022-12-07T00:19:30;45.58;;;27.83;;
30458;SDS011;17254;50.976;7.034;2022-12-07T00:19:36;47.33;;;29.27;;
30458;SDS011;17254;50.976;7.034;2022-12-07T00:19:42;47.58;;;29.50;;
30458;SDS011;17254;50.976;7.034;2022-12-07T00:19:47;47.67;;;30.10;;
30458;SDS011;17254;50.976;7.034;2022-12-07T00:19:54;48.00;;;30.57;;
30458;SDS011;17254;50.976;7.034;2022-12-07T00:20:00;48.25;;;30.77;;
30458;SDS011;17254;50.976;7.034;2022-12-07T00:20:06;48.47;;;30.98;;
30458;SDS011;17254;50.976;7.034;2022-12-07T00:20:13;47.47;;;30.60;;
30458;SDS011;17254;50.976;7.034;2022-12-07T00:20:19;48.20;;;30.10;;
30458;SDS011;17254;50.976;7.034;2022-12-07T00:20:24;48.75;;;30.23;;
30458;SDS011;17254;50.976;7.034;2022-12-07T00:20:30;47.40;;;30.35;;
30458;SDS011;17254;50.976;7.034;2022-12-07T00:20:38;46.05;;;29.85;;
30458;SDS011;17254;50.976;7.034;2022-12-07T00:20:44;46.63;;;29.97;;
30458;SDS011;17254;50.976;7.034;2022-12-07T00:20:50;45.45;;;29.95;;
30458;SDS011;17254;50.976;7.034;2022-12-07T00:20:58;44.42;;;29.75;;
30458;SDS011;17254;50.976;7.034;2022-12-07T00:21:06;44.88;;;29.63;;
30458;SDS011;17254;50.976;7.034;2022-12-07T00:21:15;49.37;;;28.77;;
30458;SDS011;17254;50.976;7.034;2022-12-07T00:21:25;45.38;;;25.85;;
30458;SDS011;17254;50.976;7.034;2022-12-07T00:21:33;44.80;;;23.90;;
30458;SDS011;17254;50.976;7.034;2022-12-07T00:21:40;44.47;;;23.72;;
30458;SDS011;17254;50.976;7.034;2022-12-07T00:21:47;42.84;;;25.10;;
30458;SDS011;17254;50.976;7.034;2022-12-07T00:21:53;44.85;;;27.17;;
30458;SDS011;17254;50.976;7.034;2022-12-07T00:21:59;44.50;;;27.67;;
30458;SDS011;17254;50.976;7.034;2022-12-07T00:22:05;43.77;;;27.47;;
30458;SDS011;17254;50.976;7.034;2022-12-07T00:22:11;44.53;;;27.67;;
30458;SDS011;17254;50.976;7.034;2022-12-07T00:22:16;44.05;;;27.70;;
30458;SDS011;17254;50.976;7.034;2022-12-07T00:22:22;43.38;;;27.50;;
30458;SDS011;17254;50.976;7.034;2022-12-07T00:22:28;45.30;;;28.17;;
30458;SDS011;17254;50.976;7.034;2022-12-07T00:22:35;43.74;;;28.10;;
30458;SDS011;17254;50.976;7.034;2022-12-07T00:22:41;41.13;;;27.42;;
30458;SDS011;17254;50.976;7.034;2022-12-07T00:22:50;41.90;;;27.55;;
30458;SDS011;17254;50.976;7.034;2022-12-07T00:22:56;42.93;;;27.93;;
30458;SDS011;17254;50.976;7.034;2022-12-07T00:23:02;42.84;;;28.12;;
30458;SDS011;17254;50.976;7.034;2022-12-07T00:23:08;43.13;;;28.67;;
30458;SDS011;17254;50.976;7.034;2022-12-07T00:23:14;43.37;;;29.07;;
30458;SDS011;17254;50.976;7.034;2022-12-07T00:23:20;42.78;;;28.83;;
30458;SDS011;17254;50.976;7.034;2022-12-07T00:23:26;41.80;;;28.63;;
30458;SDS011;17254;50.976;7.034;2022-12-07T00:23:32;41.20;;;28.60;;
30458;SDS011;17254;50.976;7.034;2022-12-07T00:23:39;42.35;;;28.77;;
30458;SDS011;17254;50.976;7.034;2022-12-07T00:23:47;43.55;;;29.02;;
30458;SDS011;17254;50.976;7.034;2022-12-07T00:23:55;43.63;;;29.20;;
30458;SDS011;17254;50.976;7.034;2022-12-07T00:24:03;44.13;;;28.77;;
30458;SDS011;17254;50.976;7.034;2022-12-07T00:24:10;42.30;;;28.33;;
30458;SDS011;17254;50.976;7.034;2022-12-07T00:24:17;41.50;;;28.13;;
30458;SDS011;17254;50.976;7.034;2022-12-07T00:24:23;41.47;;;27.98;;
30458;SDS011;17254;50.976;7.034;2022-12-07T00:24:29;42.80;;;28.83;;
30458;SDS011;17254;50.976;7.034;2022-12-07T00:24:35;42.43;;;28.77;;
30458;SDS011;17254;50.976;7.034;2022-12-07T00:24:41;43.10;;;29.00;;
30458;SDS011;17254;50.976;7.034;2022-12-07T00:24:47;43.97;;;29.13;;
30458;SDS011;17254;50.976;7.034;2022-12-07T00:24:53;44.22;;;29.15;;
30458;SDS011;17254;50.976;7.034;2022-12-07T00:24:59;43.17;;;27.73;;
30458;SDS011;17254;50.976;7.034;2022-12-07T00:25:04;42.93;;;27.10;;
30458;SDS011;17254;50.976;7.034;2022-12-07T00:25:11;43.42;;;26.72;;
30458;SDS011;17254;50.976;7.034;2022-12-07T00:25:16;44.53;;;26.97;;
30458;SDS011;17254;50.976;7.034;2022-12-07T00:25:23;44.34;;;26.62;;
30458;SDS011;17254;50.976;7.034;2022-12-07T00:25:29;44.93;;;27.27;;
30458;SDS011;17254;50.976;7.034;2022-12-07T00:25:35;45.40;;;27.75;;
30458;SDS011;17254;50.976;7.034;2022-12-07T00:25:41;44.40;;;28.05;;
30458;SDS011;17254;50.976;7.034;2022-12-07T00:25:47;43.08;;;26.98;;
30458;SDS011;17254;50.976;7.034;2022-12-07T00:25:54;43.47;;;26.83;;
30458;SDS011;17254;50.976;7.034;2022-12-07T00:26:04;43.00;;;26.73;;
30458;SDS011;17254;50.976;7.034;2022-12-07T00:26:11;41.98;;;26.61;;
30458;SDS011;17254;50.976;7.034;2022-12-07T00:26:19;44.45;;;27.90;;
30458;SDS011;17254;50.976;7.034;2022-12-07T00:26:28;46.07;;;28.22;;
30458;SDS011;17254;50.976;7.034;2022-12-07T00:26:39;47.88;;;27.60;;
30458;SDS011;17254;50.976;7.034;2022-12-07T00:26:46;46.22;;;26.44;;
30458;SDS011;17254;50.976;7.034;2022-12-07T00:26:52;44.08;;;26.17;;
30458;SDS011;17254;50.976;7.034;2022-12-07T00:26:58;44.30;;;27.33;;
30458;SDS011;17254;50.976;7.034;2022-12-07T00:27:04;43.47;;;27.98;;
30458;SDS011;17254;50.976;7.034;2022-12-07T00:27:10;43.70;;;28.42;;
30458;SDS011;17254;50.976;7.034;2022-12-07T00:27:16;43.15;;;27.90;;
30458;SDS011;17254;50.976;7.034;2022-12-07T00:27:22;43.77;;;27.70;;
30458;SDS011;17254;50.976;7.034;2022-12-07T00:27:28;41.40;;;26.92;;
30458;SDS011;17254;50.976;7.034;2022-12-07T00:27:33;40.25;;;26.30;;
30458;SDS011;17254;50.976;7.034;2022-12-07T00:27:40;41.17;;;26.38;;
30458;SDS011;17254;50.976;7.034;2022-12-07T00:27:46;43.97;;;26.88;;
30458;SDS011;17254;50.976;7.034;2022-12-07T00:27:52;42.58;;;26.92;;
30458;SDS011;17254;50.976;7.034;2022-12-07T00:28:00;43.34;;;27.63;;
30458;SDS011;17254;50.976;7.034;2022-12-07T00:28:06;43.77;;;28.60;;
30458;SDS011;17254;50.976;7.034;2022-12-07T00:28:14;43.32;;;29.05;;
30458;SDS011;17254;50.976;7.034;2022-12-07T00:28:20;42.53;;;29.45;;
30458;SDS011;17254;50.976;7.034;2022-12-07T00:28:26;43.42;;;29.58;;
30458;SDS011;17254;50.976;7.034;2022-12-07T00:28:32;42.72;;;28.98;;
30458;SDS011;17254;50.976;7.034;2022-12-07T00:28:39;42.50;;;28.67;;
30458;SDS011;17254;50.976;7.034;2022-12-07T00:28:45;41.35;;;28.60;;
30458;SDS011;17254;50.976;7.034;2022-12-07T00:28:52;40.92;;;28.62;;
30458;SDS011;17254;50.976;7.034;2022-12-07T00:29:00;40.93;;;28.43;;
30458;SDS011;17254;50.976;7.034;2022-12-07T00:29:09;41.13;;;28.20;;
30458;SDS011;17254;50.976;7.034;2022-12-07T00:29:20;42.92;;;28.41;;
30458;SDS011;17254;50.976;7.034;2022-12-07T00:29:26;45.23;;;29.53;;
30458;SDS011;17254;50.976;7.034;2022-12-07T00:29:32;46.20;;;30.40;;
30458;SDS011;17254;50.976;7.034;2022-12-07T00:29:38;47.03;;;30.75;;
30458;SDS011;17254;50.976;7.034;2022-12-07T00:29:44;46.33;;;31.47;;
30458;SDS011;17254;50.976;7.034;2022-12-07T00:29:50;45.50;;;31.50;;
30458;SDS011;17254;50.976;7.034;2022-12-07T00:29:56;43.83;;;30.63;;
30458;SDS011;17254;50.976;7.034;2022-12-07T00:30:02;43.15;;;30.65;;
30458;SDS011;17254;50.976;7.034;2022-12-07T00:30:09;41.52;;;30.38;;
30458;SDS011;17254;50.976;7.034;2022-12-07T00:30:15;41.28;;;29.65;;
30458;SDS011;17254;50.976;7.034;2022-12-07T00:30:21;42.10;;;29.58;;
30458;SDS011;17254;50.976;7.034;2022-12-07T00:30:27;42.95;;;29.77;;
30458;SDS011;17254;50.976;7.034;2022-12-07T00:30:33;43.03;;;29.50;;
30458;SDS011;17254;50.976;7.034;2022-12-07T00:30:39;44.80;;;29.97;;
30458;SDS011;17254;50.976;7.034;2022-12-07T00:30:44;46.83;;;30.63;;
30458;SDS011;17254;50.976;7.034;2022-12-07T00:30:50;47.80;;;30.80;;
30458;SDS011;17254;50.976;7.034;2022-12-07T00:30:59;47.38;;;30.80;;
30458;SDS011;17254;50.976;7.034;2022-12-07T00:31:07;48.16;;;31.14;;
30458;SDS011;17254;50.976;7.034;2022-12-07T00:31:15;48.02;;;30.40;;
30458;SDS011;17254;50.976;7.034;2022-12-07T00:31:23;47.13;;;30.42;;
30458;SDS011;17254;50.976;7.034;2022-12-07T00:31:31;46.78;;;30.18;;
30458;SDS011;17254;50.976;7.034;2022-12-07T00:31:40;44.07;;;29.83;;
30458;SDS011;17254;50.976;7.034;2022-12-07T00:31:46;43.97;;;29.63;;
30458;SDS011;17254;50.976;7.034;2022-12-07T00:31:52;44.27;;;29.50;;
30458;SDS011;17254;50.976;7.034;2022-12-07T00:31:58;44.90;;;29.05;;
30458;SDS011;17254;50.976;7.034;2022-12-07T00:32:03;44.77;;;28.83;;
30458;SDS011;17254;50.976;7.034;2022-12-07T00:32:09;44.45;;;28.70;;
30458;SDS011;17254;50.976;7.034;2022-12-07T00:32:15;43.80;;;28.33;;
30458;SDS011;17254;50.976;7.034;2022-12-07T00:32:21;42.15;;;28.10;;
30458;SDS011;17254;50.976;7.034;2022-12-07T00:32:27;41.20;;;28.33;;
30458;SDS011;17254;50.976;7.034;2022-12-07T00:32:34;41.98;;;28.82;;
30458;SDS011;17254;50.976;7.034;2022-12-07T00:32:40;42.80;;;28.83;;
30458;SDS011;17254;50.976;7.034;2022-12-07T00:32:45;42.40;;;28.77;;
30458;SDS011;17254;50.976;7.034;2022-12-07T00:32:51;43.78;;;28.63;;
30458;SDS011;17254;50.976;7.034;2022-12-07T00:32:57;44.38;;;28.02;;
30458;SDS011;17254;50.976;7.034;2022-12-07T00:33:03;45.25;;;28.40;;
30458;SDS011;17254;50.976;7.034;2022-12-07T00:33:09;44.13;;;28.47;;
30458;SDS011;17254;50.976;7.034;2022-12-07T00:33:15;43.88;;;28.83;;
30458;SDS011;17254;50.976;7.034;2022-12-07T00:33:21;43.80;;;29.10;;
30458;SDS011;17254;50.976;7.034;2022-12-07T00:33:27;42.45;;;28.85;;
30458;SDS011;17254;50.976;7.034;2022-12-07T00:33:33;42.03;;;27.87;;
30458;SDS011;17254;50.976;7.034;2022-12-07T00:33:40;41.70;;;26.57;;
30458;SDS011;17254;50.976;7.034;2022-12-07T00:33:46;42.67;;;26.07;;
30458;SDS011;17254;50.976;7.034;2022-12-07T00:33:52;42.87;;;26.33;;
30458;SDS011;17254;50.976;7.034;2022-12-07T00:33:59;42.53;;;26.70;;
30458;SDS011;17254;50.976;7.034;2022-12-07T00:34:05;42.13;;;26.88;;
30458;SDS011;17254;50.976;7.034;2022-12-07T00:34:12;42.07;;;27.63;;
30458;SDS011;17254;50.976;7.034;2022-12-07T00:34:20;42.05;;;27.62;;
30458;SDS011;17254;50.976;7.034;2022-12-07T00:34:26;44.33;;;28.13;;
30458;SDS011;17254;50.976;7.034;2022-12-07T00:34:32;45.42;;;28.77;;
30458;SDS011;17254;50.976;7.034;2022-12-07T00:34:38;46.67;;;29.10;;
30458;SDS011;17254;50.976;7.034;2022-12-07T00:34:44;45.83;;;29.00;;
30458;SDS011;17254;50.976;7.034;2022-12-07T00:34:50;46.40;;;29.55;;
30458;SDS011;17254;50.976;7.034;2022-12-07T00:34:56;45.10;;;29.85;;
30458;SDS011;17254;50.976;7.034;2022-12-07T00:35:01;44.17;;;29.50;;
30458;SDS011;17254;50.976;7.034;2022-12-07T00:35:08;43.73;;;29.27;;
30458;SDS011;17254;50.976;7.034;2022-12-07T00:35:14;44.60;;;29.10;;
30458;SDS011;17254;50.976;7.034;2022-12-07T00:35:20;43.12;;;28.66;;
30458;SDS011;17254;50.976;7.034;2022-12-07T00:35:26;43.10;;;28.37;;
30458;SDS011;17254;50.976;7.034;2022-12-07T00:35:33;43.25;;;28.48;;
30458;SDS011;17254;50.976;7.034;2022-12-07T00:35:39;42.50;;;29.02;;
30458;SDS011;17254;50.976;7.034;2022-12-07T00:35:45;43.13;;;29.00;;
30458;SDS011;17254;50.976;7.034;2022-12-07T00:35:54;43.05;;;28.35;;
30458;SDS011;17254;50.976;7.034;2022-12-07T00:36:00;43.31;;;27.34;;
30458;SDS011;17254;50.976;7.034;2022-12-07T00:36:09;42.70;;;26.17;;
30458;SDS011;17254;50.976;7.034;2022-12-07T00:36:18;43.60;;;27.40;;
30458;SDS011;17254;50.976;7.034;2022-12-07T00:36:26;43.94;;;28.21;;
30458;SDS011;17254;50.976;7.034;2022-12-07T00:36:33;43.22;;;28.23;;
30458;SDS011;17254;50.976;7.034;2022-12-07T00:36:40;44.40;;;28.50;;
30458;SDS011;17254;50.976;7.034;2022-12-07T00:36:46;43.73;;;28.17;;
30458;SDS011;17254;50.976;7.034;2022-12-07T00:36:52;43.47;;;27.43;;
30458;SDS011;17254;50.976;7.034;2022-12-07T00:36:58;41.77;;;27.00;;
30458;SDS011;17254;50.976;7.034;2022-12-07T00:37:04;41.63;;;27.17;;
30458;SDS011;17254;50.976;7.034;2022-12-07T00:37:10;40.90;;;27.23;;
30458;SDS011;17254;50.976;7.034;2022-12-07T00:37:17;40.60;;;27.23;;
30458;SDS011;17254;50.976;7.034;2022-12-07T00:37:23;40.05;;;27.55;;
30458;SDS011;17254;50.976;7.034;2022-12-07T00:37:29;41.58;;;28.08;;
30458;SDS011;17254;50.976;7.034;2022-12-07T00:37:35;43.67;;;28.65;;
30458;SDS011;17254;50.976;7.034;2022-12-07T00:37:41;43.97;;;28.53;;
30458;SDS011;17254;50.976;7.034;2022-12-07T00:37:46;44.17;;;28.08;;
30458;SDS011;17254;50.976;7.034;2022-12-07T00:37:52;44.03;;;27.58;;
30458;SDS011;17254;50.976;7.034;2022-12-07T00:37:58;43.08;;;27.20;;
30458;SDS011;17254;50.976;7.034;2022-12-07T00:38:05;42.52;;;26.96;;
30458;SDS011;17254;50.976;7.034;2022-12-07T00:38:11;43.93;;;27.13;;